sensor_id;sensor_type;location;lat;lon;timestamp;temperature;humidity
23385;DHT22;11865;45.394;10.978;2022-12-29T00:01:31;8.10;99.90
23385;DHT22;11865;45.394;10.978;2022-12-29T00:03:59;8.20;99.90
23385;DHT22;11865;45.394;10.978;2022-12-29T00:06:26;8.10;99.90
23385;DHT22;11865;45.394;10.978;2022-12-29T00:08:54;8.20;99.90
23385;DHT22;11865;45.394;10.978;2022-12-29T00:11:25;8.30;99.90
23385;DHT22;11865;45.394;10.978;2022-12-29T00:13:53;8.30;99.90
23385;DHT22;11865;45.394;10.978;2022-12-29T00:16:42;8.30;99.90
23385;DHT22;11865;45.394;10.978;2022-12-29T00:19:10;8.30;99.90
23385;DHT22;11865;45.394;10.978;2022-12-29T00:21:58;8.10;99.90
23385;DHT22;11865;45.394;10.978;2022-12-29T00:24:44;8.00;99.90
23385;DHT22;11865;45.394;10.978;2022-12-29T00:27:20;7.80;99.90
23385;DHT22;11865;45.394;10.978;2022-12-29T00:30:14;7.80;99.90
23385;DHT22;11865;45.394;10.978;2022-12-29T00:33:04;7.80;99.90
23385;DHT22;11865;45.394;10.978;2022-12-29T00:35:56;7.80;99.90
23385;DHT22;11865;45.394;10.978;2022-12-29T00:38:25;7.90;99.90
23385;DHT22;11865;45.394;10.978;2022-12-29T00:41:11;7.90;99.90
23385;DHT22;11865;45.394;10.978;2022-12-29T00:44:00;7.90;99.90
23385;DHT22;11865;45.394;10.978;2022-12-29T00:46:35;7.70;99.90
23385;DHT22;11865;45.394;10.978;2022-12-29T00:49:02;7.60;99.90
23385;DHT22;11865;45.394;10.978;2022-12-29T00:51:49;7.60;99.90
23385;DHT22;11865;45.394;10.978;2022-12-29T00:54:16;7.70;99.90
23385;DHT22;11865;45.394;10.978;2022-12-29T00:56:48;7.50;99.90
23385;DHT22;11865;45.394;10.978;2022-12-29T00:59:16;7.50;99.90
23385;DHT22;11865;45.394;10.978;2022-12-29T01:01:45;7.60;99.90
23385;DHT22;11865;45.394;10.978;2022-12-29T01:04:12;7.50;99.90
23385;DHT22;11865;45.394;10.978;2022-12-29T01:06:40;7.40;99.90
23385;DHT22;11865;45.394;10.978;2022-12-29T01:09:08;7.50;99.90
23385;DHT22;11865;45.394;10.978;2022-12-29T01:11:54;7.50;99.90
23385;DHT22;11865;45.394;10.978;2022-12-29T01:14:22;7.40;99.90
23385;DHT22;11865;45.394;10.978;2022-12-29T01:16:49;7.60;99.90
23385;DHT22;11865;45.394;10.978;2022-12-29T01:19:17;7.70;99.90
23385;DHT22;11865;45.394;10.978;2022-12-29T01:21:45;7.70;99.90
23385;DHT22;11865;45.394;10.978;2022-12-29T01:24:13;7.70;99.90
23385;DHT22;11865;45.394;10.978;2022-12-29T01:26:40;7.70;99.90
23385;DHT22;11865;45.394;10.978;2022-12-29T01:29:08;7.70;99.90
23385;DHT22;11865;45.394;10.978;2022-12-29T01:31:35;7.70;99.90
23385;DHT22;11865;45.394;10.978;2022-12-29T01:34:03;7.70;99.90
23385;DHT22;11865;45.394;10.978;2022-12-29T01:36:31;7.70;99.90
23385;DHT22;11865;45.394;10.978;2022-12-29T01:38:59;7.80;99.90
23385;DHT22;11865;45.394;10.978;2022-12-29T01:41:26;7.80;99.90
23385;DHT22;11865;45.394;10.978;2022-12-29T01:43:54;7.90;99.90
23385;DHT22;11865;45.394;10.978;2022-12-29T01:46:57;7.90;99.90
23385;DHT22;11865;45.394;10.978;2022-12-29T01:49:18;7.90;99.90
23385;DHT22;11865;45.394;10.978;2022-12-29T01:51:53;7.90;99.90
23385;DHT22;11865;45.394;10.978;2022-12-29T01:56:48;7.90;99.90
23385;DHT22;11865;45.394;10.978;2022-12-29T01:59:17;7.90;99.90
23385;DHT22;11865;45.394;10.978;2022-12-29T02:01:45;8.00;99.90
23385;DHT22;11865;45.394;10.978;2022-12-29T02:04:12;8.00;99.90
23385;DHT22;11865;45.394;10.978;2022-12-29T02:07:15;8.10;99.90
23385;DHT22;11865;45.394;10.978;2022-12-29T02:09:34;8.30;99.90
23385;DHT22;11865;45.394;10.978;2022-12-29T02:12:01;8.30;99.90
23385;DHT22;11865;45.394;10.978;2022-12-29T02:14:29;8.40;99.90
23385;DHT22;11865;45.394;10.978;2022-12-29T02:25:09;8.40;99.90
23385;DHT22;11865;45.394;10.978;2022-12-29T02:35:51;8.10;99.90
23385;DHT22;11865;45.394;10.978;2022-12-29T02:40:51;8.20;99.90
23385;DHT22;11865;45.394;10.978;2022-12-29T02:43:24;8.30;99.90
23385;DHT22;11865;45.394;10.978;2022-12-29T02:48:24;8.00;99.90
23385;DHT22;11865;45.394;10.978;2022-12-29T02:53:19;8.00;99.90
23385;DHT22;11865;45.394;10.978;2022-12-29T02:56:07;8.10;99.90
23385;DHT22;11865;45.394;10.978;2022-12-29T02:58:35;8.00;99.90
23385;DHT22;11865;45.394;10.978;2022-12-29T03:03:51;8.10;99.90
23385;DHT22;11865;45.394;10.978;2022-12-29T03:09:14;8.00;99.90
23385;DHT22;11865;45.394;10.978;2022-12-29T03:11:57;8.10;99.90
23385;DHT22;11865;45.394;10.978;2022-12-29T03:20:14;8.10;99.90
23385;DHT22;11865;45.394;10.978;2022-12-29T03:22:47;8.10;99.90
23385;DHT22;11865;45.394;10.978;2022-12-29T03:25:22;7.90;99.90
23385;DHT22;11865;45.394;10.978;2022-12-29T03:27:57;7.90;99.90
23385;DHT22;11865;45.394;10.978;2022-12-29T03:30:28;7.90;99.90
23385;DHT22;11865;45.394;10.978;2022-12-29T03:32:58;7.90;99.90
23385;DHT22;11865;45.394;10.978;2022-12-29T03:35:31;7.90;99.90
23385;DHT22;11865;45.394;10.978;2022-12-29T03:38:06;8.00;99.90
23385;DHT22;11865;45.394;10.978;2022-12-29T03:40:35;8.10;99.90
23385;DHT22;11865;45.394;10.978;2022-12-29T03:43:04;8.20;99.90
23385;DHT22;11865;45.394;10.978;2022-12-29T03:45:34;8.10;99.90
23385;DHT22;11865;45.394;10.978;2022-12-29T03:48:01;8.10;99.90
23385;DHT22;11865;45.394;10.978;2022-12-29T03:50:29;8.00;99.90
23385;DHT22;11865;45.394;10.978;2022-12-29T03:52:57;8.00;99.90
23385;DHT22;11865;45.394;10.978;2022-12-29T03:55:26;8.00;99.90
23385;DHT22;11865;45.394;10.978;2022-12-29T03:57:54;8.00;99.90
23385;DHT22;11865;45.394;10.978;2022-12-29T04:00:31;8.00;99.90
23385;DHT22;11865;45.394;10.978;2022-12-29T04:02:58;7.90;99.90
23385;DHT22;11865;45.394;10.978;2022-12-29T04:05:26;7.90;99.90
23385;DHT22;11865;45.394;10.978;2022-12-29T04:07:54;8.00;99.90
23385;DHT22;11865;45.394;10.978;2022-12-29T04:10:22;8.10;99.90
23385;DHT22;11865;45.394;10.978;2022-12-29T04:12:53;8.10;99.90
23385;DHT22;11865;45.394;10.978;2022-12-29T04:15:21;8.10;99.90
23385;DHT22;11865;45.394;10.978;2022-12-29T04:17:51;8.10;99.90
23385;DHT22;11865;45.394;10.978;2022-12-29T04:20:18;8.20;99.90
23385;DHT22;11865;45.394;10.978;2022-12-29T04:23:06;8.10;99.90
23385;DHT22;11865;45.394;10.978;2022-12-29T04:25:35;8.10;99.90
23385;DHT22;11865;45.394;10.978;2022-12-29T04:28:02;8.10;99.90
23385;DHT22;11865;45.394;10.978;2022-12-29T04:31:08;8.10;99.90
23385;DHT22;11865;45.394;10.978;2022-12-29T04:33:38;7.90;99.90
23385;DHT22;11865;45.394;10.978;2022-12-29T04:36:06;8.10;99.90
23385;DHT22;11865;45.394;10.978;2022-12-29T04:38:35;8.20;99.90
23385;DHT22;11865;45.394;10.978;2022-12-29T04:41:04;8.20;99.90
23385;DHT22;11865;45.394;10.978;2022-12-29T04:43:33;8.10;99.90
23385;DHT22;11865;45.394;10.978;2022-12-29T04:46:23;8.20;99.90
23385;DHT22;11865;45.394;10.978;2022-12-29T04:48:56;8.30;99.90
23385;DHT22;11865;45.394;10.978;2022-12-29T04:51:45;8.40;99.90
23385;DHT22;11865;45.394;10.978;2022-12-29T04:54:14;8.20;99.90
23385;DHT22;11865;45.394;10.978;2022-12-29T04:56:44;8.20;99.90
23385;DHT22;11865;45.394;10.978;2022-12-29T04:59:14;8.30;99.90
23385;DHT22;11865;45.394;10.978;2022-12-29T05:01:43;8.20;99.90
23385;DHT22;11865;45.394;10.978;2022-12-29T05:04:11;8.00;99.90
23385;DHT22;11865;45.394;10.978;2022-12-29T05:06:38;7.90;99.90
23385;DHT22;11865;45.394;10.978;2022-12-29T05:09:06;8.10;99.90
23385;DHT22;11865;45.394;10.978;2022-12-29T05:11:34;8.20;99.90
23385;DHT22;11865;45.394;10.978;2022-12-29T05:14:02;8.20;99.90
23385;DHT22;11865;45.394;10.978;2022-12-29T05:16:29;8.30;99.90
23385;DHT22;11865;45.394;10.978;2022-12-29T05:18:57;8.30;99.90
23385;DHT22;11865;45.394;10.978;2022-12-29T05:21:24;8.20;99.90
23385;DHT22;11865;45.394;10.978;2022-12-29T05:23:52;8.20;99.90
23385;DHT22;11865;45.394;10.978;2022-12-29T05:26:19;8.00;99.90
23385;DHT22;11865;45.394;10.978;2022-12-29T05:29:22;8.00;99.90
23385;DHT22;11865;45.394;10.978;2022-12-29T05:31:49;8.10;99.90
23385;DHT22;11865;45.394;10.978;2022-12-29T05:34:16;8.00;99.90
23385;DHT22;11865;45.394;10.978;2022-12-29T05:36:44;8.00;99.90
23385;DHT22;11865;45.394;10.978;2022-12-29T05:39:13;8.10;99.90
23385;DHT22;11865;45.394;10.978;2022-12-29T05:41:42;8.10;99.90
23385;DHT22;11865;45.394;10.978;2022-12-29T05:44:32;8.20;99.90
23385;DHT22;11865;45.394;10.978;2022-12-29T05:47:24;8.40;99.90
23385;DHT22;11865;45.394;10.978;2022-12-29T05:50:23;8.40;99.90
23385;DHT22;11865;45.394;10.978;2022-12-29T05:53:11;8.30;99.90
23385;DHT22;11865;45.394;10.978;2022-12-29T05:55:38;8.10;99.90
23385;DHT22;11865;45.394;10.978;2022-12-29T05:58:15;8.10;99.90
23385;DHT22;11865;45.394;10.978;2022-12-29T06:00:43;8.00;99.90
23385;DHT22;11865;45.394;10.978;2022-12-29T06:03:10;8.00;99.90
23385;DHT22;11865;45.394;10.978;2022-12-29T06:05:38;8.00;99.90
23385;DHT22;11865;45.394;10.978;2022-12-29T06:08:05;7.90;99.90
23385;DHT22;11865;45.394;10.978;2022-12-29T06:10:33;7.90;99.90
23385;DHT22;11865;45.394;10.978;2022-12-29T06:13:04;7.90;99.90
23385;DHT22;11865;45.394;10.978;2022-12-29T06:15:35;7.90;99.90
23385;DHT22;11865;45.394;10.978;2022-12-29T06:18:06;7.80;99.90
23385;DHT22;11865;45.394;10.978;2022-12-29T06:20:33;7.60;99.90
23385;DHT22;11865;45.394;10.978;2022-12-29T06:23:03;7.60;99.90
23385;DHT22;11865;45.394;10.978;2022-12-29T06:25:31;7.40;99.90
23385;DHT22;11865;45.394;10.978;2022-12-29T06:28:01;7.40;99.90
23385;DHT22;11865;45.394;10.978;2022-12-29T06:30:28;7.50;99.90
23385;DHT22;11865;45.394;10.978;2022-12-29T06:33:00;7.60;99.90
23385;DHT22;11865;45.394;10.978;2022-12-29T06:35:28;7.70;99.90
23385;DHT22;11865;45.394;10.978;2022-12-29T06:37:55;7.60;99.90
23385;DHT22;11865;45.394;10.978;2022-12-29T06:40:22;7.50;99.90
23385;DHT22;11865;45.394;10.978;2022-12-29T06:43:10;7.40;99.90
23385;DHT22;11865;45.394;10.978;2022-12-29T06:46:00;7.40;99.90
23385;DHT22;11865;45.394;10.978;2022-12-29T06:48:27;7.40;99.90
23385;DHT22;11865;45.394;10.978;2022-12-29T06:50:55;7.40;99.90
23385;DHT22;11865;45.394;10.978;2022-12-29T06:53:22;7.40;99.90
23385;DHT22;11865;45.394;10.978;2022-12-29T06:55:49;7.40;99.90
23385;DHT22;11865;45.394;10.978;2022-12-29T06:58:17;7.50;99.90
23385;DHT22;11865;45.394;10.978;2022-12-29T07:00:44;7.60;99.90
23385;DHT22;11865;45.394;10.978;2022-12-29T07:03:12;7.40;99.90
23385;DHT22;11865;45.394;10.978;2022-12-29T07:05:39;7.40;99.90
23385;DHT22;11865;45.394;10.978;2022-12-29T07:08:07;7.40;99.90
23385;DHT22;11865;45.394;10.978;2022-12-29T07:10:34;7.30;99.90
23385;DHT22;11865;45.394;10.978;2022-12-29T07:13:01;7.50;99.90
23385;DHT22;11865;45.394;10.978;2022-12-29T07:15:28;7.50;99.90
23385;DHT22;11865;45.394;10.978;2022-12-29T07:17:56;7.50;99.90
23385;DHT22;11865;45.394;10.978;2022-12-29T07:20:23;7.50;99.90
23385;DHT22;11865;45.394;10.978;2022-12-29T07:22:53;7.50;99.90
23385;DHT22;11865;45.394;10.978;2022-12-29T07:25:20;7.60;99.90
23385;DHT22;11865;45.394;10.978;2022-12-29T07:27:48;7.60;99.90
23385;DHT22;11865;45.394;10.978;2022-12-29T07:30:15;7.70;99.90
23385;DHT22;11865;45.394;10.978;2022-12-29T07:32:43;7.70;99.90
23385;DHT22;11865;45.394;10.978;2022-12-29T07:35:10;7.70;99.90
23385;DHT22;11865;45.394;10.978;2022-12-29T07:37:37;7.70;99.90
23385;DHT22;11865;45.394;10.978;2022-12-29T07:40:05;7.80;99.90
23385;DHT22;11865;45.394;10.978;2022-12-29T07:42:32;7.90;99.90
23385;DHT22;11865;45.394;10.978;2022-12-29T07:45:00;7.90;99.90
23385;DHT22;11865;45.394;10.978;2022-12-29T07:47:36;8.10;99.90
23385;DHT22;11865;45.394;10.978;2022-12-29T07:50:03;8.10;99.90
23385;DHT22;11865;45.394;10.978;2022-12-29T07:52:31;8.10;99.90
23385;DHT22;11865;45.394;10.978;2022-12-29T07:54:59;8.30;99.90
23385;DHT22;11865;45.394;10.978;2022-12-29T07:57:26;8.30;99.90
23385;DHT22;11865;45.394;10.978;2022-12-29T07:59:58;8.20;99.90
23385;DHT22;11865;45.394;10.978;2022-12-29T08:02:25;8.30;99.90
23385;DHT22;11865;45.394;10.978;2022-12-29T08:04:56;8.40;99.90
23385;DHT22;11865;45.394;10.978;2022-12-29T08:07:23;8.40;99.90
23385;DHT22;11865;45.394;10.978;2022-12-29T08:09:51;8.50;99.90
23385;DHT22;11865;45.394;10.978;2022-12-29T08:12:18;8.40;99.90
23385;DHT22;11865;45.394;10.978;2022-12-29T08:14:45;8.40;99.90
23385;DHT22;11865;45.394;10.978;2022-12-29T08:17:13;8.40;99.90
23385;DHT22;11865;45.394;10.978;2022-12-29T08:19:40;8.40;99.90
23385;DHT22;11865;45.394;10.978;2022-12-29T08:22:09;8.40;99.90
23385;DHT22;11865;45.394;10.978;2022-12-29T08:24:36;8.50;99.90
23385;DHT22;11865;45.394;10.978;2022-12-29T08:27:04;8.50;99.90
23385;DHT22;11865;45.394;10.978;2022-12-29T08:29:45;8.60;99.90
23385;DHT22;11865;45.394;10.978;2022-12-29T08:32:12;8.60;99.90
23385;DHT22;11865;45.394;10.978;2022-12-29T08:34:40;8.60;99.90
23385;DHT22;11865;45.394;10.978;2022-12-29T08:37:07;8.50;99.90
23385;DHT22;11865;45.394;10.978;2022-12-29T08:39:34;8.50;99.90
23385;DHT22;11865;45.394;10.978;2022-12-29T08:42:01;8.70;99.90
23385;DHT22;11865;45.394;10.978;2022-12-29T08:44:29;8.80;99.90
23385;DHT22;11865;45.394;10.978;2022-12-29T08:46:56;8.80;99.90
23385;DHT22;11865;45.394;10.978;2022-12-29T08:49:23;8.80;99.90
23385;DHT22;11865;45.394;10.978;2022-12-29T08:51:51;8.70;99.90
23385;DHT22;11865;45.394;10.978;2022-12-29T08:54:18;8.60;99.90
23385;DHT22;11865;45.394;10.978;2022-12-29T08:56:45;8.70;99.90
23385;DHT22;11865;45.394;10.978;2022-12-29T08:59:14;8.60;99.90
23385;DHT22;11865;45.394;10.978;2022-12-29T09:01:44;8.60;99.90
23385;DHT22;11865;45.394;10.978;2022-12-29T09:04:12;8.70;99.90
23385;DHT22;11865;45.394;10.978;2022-12-29T09:06:42;8.70;99.90
23385;DHT22;11865;45.394;10.978;2022-12-29T09:09:09;8.70;99.90
23385;DHT22;11865;45.394;10.978;2022-12-29T09:11:38;8.70;99.90
23385;DHT22;11865;45.394;10.978;2022-12-29T09:14:05;8.80;99.90
23385;DHT22;11865;45.394;10.978;2022-12-29T09:16:32;8.80;99.90
23385;DHT22;11865;45.394;10.978;2022-12-29T09:19:00;9.00;99.90
23385;DHT22;11865;45.394;10.978;2022-12-29T09:21:27;9.20;99.90
23385;DHT22;11865;45.394;10.978;2022-12-29T09:23:54;9.20;99.90
23385;DHT22;11865;45.394;10.978;2022-12-29T09:26:21;9.20;99.90
23385;DHT22;11865;45.394;10.978;2022-12-29T09:28:49;9.20;99.90
23385;DHT22;11865;45.394;10.978;2022-12-29T09:31:16;9.30;99.90
23385;DHT22;11865;45.394;10.978;2022-12-29T09:33:44;9.40;99.90
23385;DHT22;11865;45.394;10.978;2022-12-29T09:36:11;9.60;99.90
23385;DHT22;11865;45.394;10.978;2022-12-29T09:38:39;9.60;99.90
23385;DHT22;11865;45.394;10.978;2022-12-29T09:51:39;9.50;99.90
23385;DHT22;11865;45.394;10.978;2022-12-29T09:54:23;9.50;99.90
23385;DHT22;11865;45.394;10.978;2022-12-29T09:56:51;9.50;99.90
23385;DHT22;11865;45.394;10.978;2022-12-29T09:59:20;9.60;99.90
23385;DHT22;11865;45.394;10.978;2022-12-29T10:04:20;9.60;99.90
23385;DHT22;11865;45.394;10.978;2022-12-29T10:12:34;9.80;99.90
23385;DHT22;11865;45.394;10.978;2022-12-29T10:15:19;9.90;99.90
23385;DHT22;11865;45.394;10.978;2022-12-29T10:25:48;10.20;99.90
23385;DHT22;11865;45.394;10.978;2022-12-29T10:28:20;10.20;99.90
23385;DHT22;11865;45.394;10.978;2022-12-29T10:30:48;10.20;99.90
23385;DHT22;11865;45.394;10.978;2022-12-29T10:33:21;10.30;99.90
23385;DHT22;11865;45.394;10.978;2022-12-29T10:35:51;10.30;99.90
23385;DHT22;11865;45.394;10.978;2022-12-29T10:38:29;10.30;99.90
23385;DHT22;11865;45.394;10.978;2022-12-29T10:41:02;10.20;99.90
23385;DHT22;11865;45.394;10.978;2022-12-29T10:43:34;10.30;99.90
23385;DHT22;11865;45.394;10.978;2022-12-29T10:46:04;10.50;99.90
23385;DHT22;11865;45.394;10.978;2022-12-29T10:48:33;10.50;99.90
23385;DHT22;11865;45.394;10.978;2022-12-29T10:51:01;10.60;99.90
23385;DHT22;11865;45.394;10.978;2022-12-29T10:53:35;10.60;99.90
23385;DHT22;11865;45.394;10.978;2022-12-29T10:56:04;10.70;99.90
23385;DHT22;11865;45.394;10.978;2022-12-29T10:58:36;10.90;99.90
23385;DHT22;11865;45.394;10.978;2022-12-29T11:01:04;10.60;99.90
23385;DHT22;11865;45.394;10.978;2022-12-29T11:06:16;10.70;99.90
23385;DHT22;11865;45.394;10.978;2022-12-29T11:09:02;11.00;99.90
23385;DHT22;11865;45.394;10.978;2022-12-29T11:11:35;11.00;99.90
23385;DHT22;11865;45.394;10.978;2022-12-29T11:16:36;10.90;99.90
23385;DHT22;11865;45.394;10.978;2022-12-29T11:19:04;10.70;99.90
23385;DHT22;11865;45.394;10.978;2022-12-29T11:21:38;10.90;99.90
23385;DHT22;11865;45.394;10.978;2022-12-29T11:24:23;10.70;99.90
23385;DHT22;11865;45.394;10.978;2022-12-29T11:26:54;10.70;99.90
23385;DHT22;11865;45.394;10.978;2022-12-29T11:31:54;11.10;99.90
23385;DHT22;11865;45.394;10.978;2022-12-29T11:34:23;11.30;99.90
23385;DHT22;11865;45.394;10.978;2022-12-29T11:36:54;11.30;99.90
23385;DHT22;11865;45.394;10.978;2022-12-29T11:39:28;11.20;99.90
23385;DHT22;11865;45.394;10.978;2022-12-29T11:41:56;11.10;99.90
23385;DHT22;11865;45.394;10.978;2022-12-29T11:44:24;11.20;99.90
23385;DHT22;11865;45.394;10.978;2022-12-29T11:46:53;11.10;99.90
23385;DHT22;11865;45.394;10.978;2022-12-29T11:49:22;11.00;99.90
23385;DHT22;11865;45.394;10.978;2022-12-29T11:51:50;11.00;99.90
23385;DHT22;11865;45.394;10.978;2022-12-29T11:54:26;10.90;99.90
23385;DHT22;11865;45.394;10.978;2022-12-29T11:56:54;10.90;99.90
23385;DHT22;11865;45.394;10.978;2022-12-29T12:00:06;11.00;99.90
23385;DHT22;11865;45.394;10.978;2022-12-29T12:02:20;10.80;99.90
23385;DHT22;11865;45.394;10.978;2022-12-29T12:04:49;10.80;99.90
23385;DHT22;11865;45.394;10.978;2022-12-29T12:07:19;10.50;99.90
23385;DHT22;11865;45.394;10.978;2022-12-29T12:09:56;10.50;99.90
23385;DHT22;11865;45.394;10.978;2022-12-29T12:12:41;10.60;99.90
23385;DHT22;11865;45.394;10.978;2022-12-29T12:20:45;10.20;99.90
23385;DHT22;11865;45.394;10.978;2022-12-29T12:23:17;10.20;99.90
23385;DHT22;11865;45.394;10.978;2022-12-29T12:25:51;10.40;99.90
23385;DHT22;11865;45.394;10.978;2022-12-29T12:30:48;10.30;99.90
23385;DHT22;11865;45.394;10.978;2022-12-29T12:33:27;10.50;99.90
23385;DHT22;11865;45.394;10.978;2022-12-29T12:41:13;10.30;99.90
23385;DHT22;11865;45.394;10.978;2022-12-29T12:43:52;10.20;99.90
23385;DHT22;11865;45.394;10.978;2022-12-29T12:52:04;10.10;99.90
23385;DHT22;11865;45.394;10.978;2022-12-29T12:59:31;10.40;99.90
23385;DHT22;11865;45.394;10.978;2022-12-29T13:04:52;10.60;99.90
23385;DHT22;11865;45.394;10.978;2022-12-29T13:10:02;10.50;99.90
23385;DHT22;11865;45.394;10.978;2022-12-29T13:17:45;10.10;99.90
23385;DHT22;11865;45.394;10.978;2022-12-29T13:22:50;9.90;99.90
23385;DHT22;11865;45.394;10.978;2022-12-29T13:27:50;10.10;99.90
23385;DHT22;11865;45.394;10.978;2022-12-29T13:30:20;10.20;99.90
23385;DHT22;11865;45.394;10.978;2022-12-29T13:32:54;10.10;99.90
23385;DHT22;11865;45.394;10.978;2022-12-29T13:35:27;10.00;99.90
23385;DHT22;11865;45.394;10.978;2022-12-29T13:38:10;10.00;99.90
23385;DHT22;11865;45.394;10.978;2022-12-29T13:40:39;10.10;99.90
23385;DHT22;11865;45.394;10.978;2022-12-29T13:43:07;10.20;99.90
23385;DHT22;11865;45.394;10.978;2022-12-29T13:45:35;10.20;99.90
23385;DHT22;11865;45.394;10.978;2022-12-29T13:48:46;10.20;99.90
23385;DHT22;11865;45.394;10.978;2022-12-29T13:50:54;10.20;99.90
23385;DHT22;11865;45.394;10.978;2022-12-29T13:53:33;10.30;99.90
23385;DHT22;11865;45.394;10.978;2022-12-29T14:08:47;10.10;99.90
23385;DHT22;11865;45.394;10.978;2022-12-29T14:11:15;10.00;99.90
23385;DHT22;11865;45.394;10.978;2022-12-29T14:13:44;9.80;99.90
23385;DHT22;11865;45.394;10.978;2022-12-29T14:16:29;9.80;99.90
23385;DHT22;11865;45.394;10.978;2022-12-29T14:19:03;9.80;99.90
23385;DHT22;11865;45.394;10.978;2022-12-29T14:21:31;9.90;99.90
23385;DHT22;11865;45.394;10.978;2022-12-29T14:26:46;10.00;99.90
23385;DHT22;11865;45.394;10.978;2022-12-29T14:29:41;10.10;99.90
23385;DHT22;11865;45.394;10.978;2022-12-29T14:32:33;10.20;99.90
23385;DHT22;11865;45.394;10.978;2022-12-29T14:34:54;10.10;99.90
23385;DHT22;11865;45.394;10.978;2022-12-29T14:39:49;10.00;99.90
23385;DHT22;11865;45.394;10.978;2022-12-29T14:42:28;10.20;99.90
23385;DHT22;11865;45.394;10.978;2022-12-29T14:45:05;10.20;99.90
23385;DHT22;11865;45.394;10.978;2022-12-29T14:47:35;10.10;99.90
23385;DHT22;11865;45.394;10.978;2022-12-29T14:55:38;9.90;99.90
23385;DHT22;11865;45.394;10.978;2022-12-29T14:58:17;9.90;99.90
23385;DHT22;11865;45.394;10.978;2022-12-29T15:00:45;10.00;99.90
23385;DHT22;11865;45.394;10.978;2022-12-29T15:05:53;9.90;99.90
23385;DHT22;11865;45.394;10.978;2022-12-29T15:08:24;9.90;99.90
23385;DHT22;11865;45.394;10.978;2022-12-29T15:10:57;9.90;99.90
23385;DHT22;11865;45.394;10.978;2022-12-29T15:13:32;9.90;99.90
23385;DHT22;11865;45.394;10.978;2022-12-29T15:16:00;9.90;99.90
23385;DHT22;11865;45.394;10.978;2022-12-29T15:18:29;9.80;99.90
23385;DHT22;11865;45.394;10.978;2022-12-29T15:20:58;9.80;99.90
23385;DHT22;11865;45.394;10.978;2022-12-29T15:23:26;9.80;99.90
23385;DHT22;11865;45.394;10.978;2022-12-29T15:25:55;9.80;99.90
23385;DHT22;11865;45.394;10.978;2022-12-29T15:28:23;9.90;99.90
23385;DHT22;11865;45.394;10.978;2022-12-29T15:30:55;9.80;99.90
23385;DHT22;11865;45.394;10.978;2022-12-29T15:33:23;9.80;99.90
23385;DHT22;11865;45.394;10.978;2022-12-29T15:35:53;9.80;99.90
23385;DHT22;11865;45.394;10.978;2022-12-29T15:38:22;9.80;99.90
23385;DHT22;11865;45.394;10.978;2022-12-29T15:41:05;9.80;99.90
23385;DHT22;11865;45.394;10.978;2022-12-29T15:43:36;9.80;99.90
23385;DHT22;11865;45.394;10.978;2022-12-29T15:46:13;9.80;99.90
23385;DHT22;11865;45.394;10.978;2022-12-29T15:48:41;9.70;99.90
23385;DHT22;11865;45.394;10.978;2022-12-29T15:51:51;9.90;99.90
23385;DHT22;11865;45.394;10.978;2022-12-29T15:53:59;9.80;99.90
23385;DHT22;11865;45.394;10.978;2022-12-29T15:56:30;9.80;99.90
23385;DHT22;11865;45.394;10.978;2022-12-29T15:58:58;9.70;99.90
23385;DHT22;11865;45.394;10.978;2022-12-29T16:01:33;9.70;99.90
23385;DHT22;11865;45.394;10.978;2022-12-29T16:04:03;9.70;99.90
23385;DHT22;11865;45.394;10.978;2022-12-29T16:06:38;9.70;99.90
23385;DHT22;11865;45.394;10.978;2022-12-29T16:09:07;9.70;99.90
23385;DHT22;11865;45.394;10.978;2022-12-29T16:11:40;9.60;99.90
23385;DHT22;11865;45.394;10.978;2022-12-29T16:14:21;9.70;99.90
23385;DHT22;11865;45.394;10.978;2022-12-29T16:16:51;9.60;99.90
23385;DHT22;11865;45.394;10.978;2022-12-29T16:19:21;9.60;99.90
23385;DHT22;11865;45.394;10.978;2022-12-29T16:21:50;9.50;99.90
23385;DHT22;11865;45.394;10.978;2022-12-29T16:24:19;9.70;99.90
23385;DHT22;11865;45.394;10.978;2022-12-29T16:26:47;9.70;99.90
23385;DHT22;11865;45.394;10.978;2022-12-29T16:29:15;9.70;99.90
23385;DHT22;11865;45.394;10.978;2022-12-29T16:34:23;9.70;99.90
23385;DHT22;11865;45.394;10.978;2022-12-29T16:36:55;9.70;99.90
23385;DHT22;11865;45.394;10.978;2022-12-29T16:44:48;9.70;99.90
23385;DHT22;11865;45.394;10.978;2022-12-29T16:47:19;9.70;99.90
23385;DHT22;11865;45.394;10.978;2022-12-29T16:49:51;9.70;99.90
23385;DHT22;11865;45.394;10.978;2022-12-29T16:52:23;9.60;99.90
23385;DHT22;11865;45.394;10.978;2022-12-29T16:54:53;9.60;99.90
23385;DHT22;11865;45.394;10.978;2022-12-29T16:57:22;9.70;99.90
23385;DHT22;11865;45.394;10.978;2022-12-29T16:59:50;9.60;99.90
23385;DHT22;11865;45.394;10.978;2022-12-29T17:02:19;9.60;99.90
23385;DHT22;11865;45.394;10.978;2022-12-29T17:04:47;9.50;99.90
23385;DHT22;11865;45.394;10.978;2022-12-29T17:07:17;9.60;99.90
23385;DHT22;11865;45.394;10.978;2022-12-29T17:09:45;9.60;99.90
23385;DHT22;11865;45.394;10.978;2022-12-29T17:12:14;9.60;99.90
23385;DHT22;11865;45.394;10.978;2022-12-29T17:14:45;9.60;99.90
23385;DHT22;11865;45.394;10.978;2022-12-29T17:17:35;9.60;99.90
23385;DHT22;11865;45.394;10.978;2022-12-29T17:20:23;9.50;99.90
23385;DHT22;11865;45.394;10.978;2022-12-29T17:22:49;9.40;99.90
23385;DHT22;11865;45.394;10.978;2022-12-29T17:25:27;9.40;99.90
23385;DHT22;11865;45.394;10.978;2022-12-29T17:27:57;9.40;99.90
23385;DHT22;11865;45.394;10.978;2022-12-29T17:30:25;9.40;99.90
23385;DHT22;11865;45.394;10.978;2022-12-29T17:33:01;9.50;99.90
23385;DHT22;11865;45.394;10.978;2022-12-29T17:35:29;9.50;99.90
23385;DHT22;11865;45.394;10.978;2022-12-29T17:37:56;9.50;99.90
23385;DHT22;11865;45.394;10.978;2022-12-29T17:40:24;9.50;99.90
23385;DHT22;11865;45.394;10.978;2022-12-29T17:42:53;9.60;99.90
23385;DHT22;11865;45.394;10.978;2022-12-29T17:45:23;9.70;99.90
23385;DHT22;11865;45.394;10.978;2022-12-29T17:47:50;9.70;99.90
23385;DHT22;11865;45.394;10.978;2022-12-29T17:50:19;9.70;99.90
23385;DHT22;11865;45.394;10.978;2022-12-29T17:52:50;9.60;99.90
23385;DHT22;11865;45.394;10.978;2022-12-29T17:55:18;9.50;99.90
23385;DHT22;11865;45.394;10.978;2022-12-29T17:57:45;9.40;99.90
23385;DHT22;11865;45.394;10.978;2022-12-29T18:00:14;9.40;99.90
23385;DHT22;11865;45.394;10.978;2022-12-29T18:02:41;9.30;99.90
23385;DHT22;11865;45.394;10.978;2022-12-29T18:05:17;9.30;99.90
23385;DHT22;11865;45.394;10.978;2022-12-29T18:07:45;9.30;99.90
23385;DHT22;11865;45.394;10.978;2022-12-29T18:10:12;9.30;99.90
23385;DHT22;11865;45.394;10.978;2022-12-29T18:12:42;9.30;99.90
23385;DHT22;11865;45.394;10.978;2022-12-29T18:15:17;9.40;99.90
23385;DHT22;11865;45.394;10.978;2022-12-29T18:17:45;9.30;99.90
23385;DHT22;11865;45.394;10.978;2022-12-29T18:20:12;9.30;99.90